Winchester, VA

4:02 AM EST on December 29, 2014 (GMT -0500)
Washington Dulles International | Change Station
CLOSE
Current Station
Airport
Location: Dulles Airport,
Elevation: 322 ft
Nearby Weather Stations

Elev 322 ft 38.93 °N, 77.45 °W | Updated 10 minutes ago

Overcast
Overcast
41 °F
Feels Like 35 °F
N
9
Wind Variable Wind from North

Today
High -- | Low -- °F
--% Chance of Precip.
Yesterday
High -- | Low -- °F
Precip. -- in
7:31 AM 4:58 PM
First Quarter, 57% visible
Pressure 30.16 in
Visibility 10.0 miles
Clouds Mostly Cloudy 4700 ft
Overcast 15000 ft
Windchill 35 °F
Dew Point 31 °F
Humidity 67%
Rainfall 0.01 in
Snow Depth Not available.
UV 0 out of 12
Pollen .10 out of 12
Air Quality Not available.
Flu Activity Not available.
METAR KIAD 290852Z 35008KT 10SM BKN047 OVC150 05/M01 A3015 RMK AO2 SLP212 60000 T00501006 51012

More Conditions Fewer Conditions

Pressure 30.16 in
Visibility 10.0 miles
Clouds Mostly Cloudy 4700 ft
Overcast 15000 ft
Windchill 35 °F
Dew Point 31 °F
Humidity 67%
Rainfall 0.01 in
Snow Depth Not available.
UV 0 out of 12
Pollen .10 out of 12
Air Quality Not available.
Flu Activity Not available.
METAR KIAD 290852Z 35008KT 10SM BKN047 OVC150 05/M01 A3015 RMK AO2 SLP212 60000 T00501006 51012

More Conditions Fewer Conditions

10-Day Weather Forecast

Almanac

Astronomy

Dec. 29, 2014 Rise Set
Actual Time
Civil Twilight
Nautical Twilight
Astronomical Twilight
Moon
Length of Visible Light
Length of Day
Tomorrow will be .
, % of the Moon is Illuminated

Today's Extremes

State Highs State Lows

Community

WunderPhotos

Upload Photos

1,781,559 photos uploaded!

WunderBlogs® & News

Nearby

Air Quality

  Air Quality AQ Index Pollutant
Not available.

Snow Depth

Station Depth Elevation

Earthquake Activity

City Distance Mag. Time & Date
Minimum magnitude displayed is 2.5.

Coastal Water Temperatures

Place Temperature

Nearby Weather Stations